createdAt,value
2018-04-24T00:01:11.971Z,80.09
2018-04-24T00:02:11.942Z,80.76
2018-04-24T00:04:04.832Z,80.76
2018-04-24T00:05:04.807Z,81.24
2018-04-24T00:06:58.275Z,80.57
2018-04-24T00:07:57.667Z,80.47
2018-04-24T00:09:50.603Z,81.04
2018-04-24T00:10:50.539Z,80.66
2018-04-24T00:12:43.931Z,80.38
2018-04-24T00:13:43.897Z,81.33
2018-04-24T00:15:37.278Z,80.76
2018-04-24T00:16:37.252Z,81.24
2018-04-24T00:18:30.146Z,80.76
2018-04-24T00:19:30.117Z,80.66
2018-04-24T00:21:23.014Z,80.66
2018-04-24T00:22:22.985Z,80.38
2018-04-24T00:24:15.882Z,80.76
2018-04-24T00:25:15.852Z,80.85
2018-04-24T00:27:08.748Z,80.85
2018-04-24T00:28:08.719Z,80.47
2018-04-24T00:30:01.616Z,81.14
2018-04-24T00:31:01.585Z,80.95
2018-04-24T00:32:54.482Z,81.29
2018-04-24T00:33:54.454Z,81.48
2018-04-24T00:35:47.348Z,81.24
2018-04-24T00:36:47.323Z,81.33
2018-04-24T00:38:40.224Z,81.20
2018-04-24T00:39:40.187Z,81.10
2018-04-24T00:41:33.655Z,80.91
2018-04-24T00:42:33.050Z,81.10
2018-04-24T00:44:25.953Z,80.91
2018-04-24T00:45:25.916Z,81.67
2018-04-24T00:47:18.816Z,81.67
2018-04-24T00:48:18.787Z,82.15
2018-04-24T00:50:12.183Z,82.06
2018-04-24T00:51:12.154Z,82.24
2018-04-24T00:53:05.048Z,82.63
2018-04-24T00:54:05.020Z,83.01
2018-04-24T00:55:57.915Z,82.53
2018-04-24T00:56:57.885Z,82.91
2018-04-24T00:58:50.781Z,83.20
2018-04-24T00:59:50.748Z,82.91
2018-04-24T01:01:44.137Z,83.29
2018-04-24T01:02:44.114Z,83.01
2018-04-24T01:04:37.005Z,83.01
2018-04-24T01:05:36.976Z,82.82
2018-04-24T01:07:29.871Z,83.01
2018-04-24T01:08:29.843Z,83.20
2018-04-24T01:10:22.744Z,83.29
2018-04-24T01:11:22.706Z,82.91
2018-04-24T01:13:16.094Z,82.91
2018-04-24T01:14:16.065Z,83.01
2018-04-24T01:16:08.963Z,83.11
2018-04-24T01:17:08.939Z,83.39
2018-04-24T01:19:01.830Z,83.01
2018-04-24T01:20:01.798Z,82.72
2018-04-24T01:21:54.705Z,83.67
2018-04-24T01:22:54.677Z,83.64
2018-04-24T01:24:47.570Z,83.92
2018-04-24T01:25:47.543Z,83.54
2018-04-24T01:27:40.434Z,83.39
2018-04-24T01:28:40.401Z,83.58
2018-04-24T01:30:33.299Z,83.35
2018-04-24T01:31:33.274Z,83.29
2018-04-24T01:33:26.655Z,83.83
2018-04-24T01:34:26.625Z,84.30
2018-04-24T01:36:19.520Z,83.83
2018-04-24T01:37:19.485Z,84.59
2018-04-24T01:39:12.383Z,84.11
2018-04-24T01:40:12.351Z,84.40
2018-04-24T01:42:05.247Z,84.97
2018-04-24T01:43:05.219Z,84.88
2018-04-24T01:44:58.120Z,85.16
2018-04-24T01:45:58.095Z,84.59
2018-04-24T01:47:50.983Z,84.97
2018-04-24T01:48:50.951Z,84.88
2018-04-24T01:50:43.846Z,85.16
2018-04-24T01:51:43.815Z,85.45
2018-04-24T01:53:36.729Z,85.83
2018-04-24T01:54:36.695Z,85.73
2018-04-24T01:56:30.085Z,86.40
2018-04-24T01:57:30.051Z,85.45
2018-04-24T01:59:22.947Z,85.54
2018-04-24T02:00:22.917Z,86.02
2018-04-24T02:02:15.817Z,85.93
2018-04-24T02:03:15.795Z,86.55
2018-04-24T02:05:08.690Z,86.78
2018-04-24T02:06:08.663Z,87.12
2018-04-24T02:08:01.557Z,86.78
2018-04-24T02:09:01.522Z,86.98
2018-04-24T02:10:54.424Z,86.74
2018-04-24T02:11:54.391Z,87.31
2018-04-24T02:13:47.288Z,86.93
2018-04-24T02:14:47.257Z,87.12
2018-04-24T02:16:40.153Z,86.88
2018-04-24T02:17:40.124Z,87.40
2018-04-24T02:19:33.019Z,86.93
2018-04-24T02:20:32.994Z,86.93
2018-04-24T02:22:25.887Z,87.21
2018-04-24T02:23:25.856Z,87.31
2018-04-24T02:25:18.752Z,87.74
2018-04-24T02:26:18.720Z,87.83
2018-04-24T02:28:11.616Z,87.54
2018-04-24T02:29:11.586Z,87.93
2018-04-24T02:31:04.481Z,87.60
2018-04-24T02:32:04.453Z,87.74
2018-04-24T02:33:57.351Z,88.36
2018-04-24T02:34:57.323Z,88.07
2018-04-24T02:36:50.268Z,87.79
2018-04-24T02:37:50.185Z,87.88
2018-04-24T02:39:43.082Z,88.55
2018-04-24T02:40:43.050Z,88.26
2018-04-24T02:42:36.516Z,88.84
2018-04-24T02:43:35.915Z,89.12
2018-04-24T02:45:28.813Z,88.93
2018-04-24T02:46:28.781Z,89.03
2018-04-24T02:48:21.685Z,89.60
2018-04-24T02:49:21.659Z,89.79
2018-04-24T02:51:14.545Z,89.12
2018-04-24T02:52:14.515Z,89.31
2018-04-24T02:54:07.412Z,89.69
2018-04-24T02:55:07.384Z,89.60
2018-04-24T02:57:00.277Z,89.31
2018-04-24T02:58:00.247Z,90.08
2018-04-24T02:59:53.143Z,90.26
2018-04-24T03:00:53.114Z,89.69
2018-04-24T03:02:46.495Z,89.60
2018-04-24T03:03:46.469Z,90.17
2018-04-24T03:05:39.377Z,90.26
2018-04-24T03:06:39.350Z,90.26
2018-04-24T03:08:32.286Z,90.08
2018-04-24T03:09:32.261Z,90.26
2018-04-24T03:11:25.159Z,89.60
2018-04-24T03:12:25.126Z,89.31
2018-04-24T03:14:18.028Z,89.50
2018-04-24T03:15:17.994Z,89.60
2018-04-24T03:17:11.377Z,89.94
2018-04-24T03:18:11.345Z,89.94
2018-04-24T03:20:04.731Z,89.31
2018-04-24T03:21:04.701Z,88.98
2018-04-24T03:22:57.599Z,89.69
2018-04-24T03:23:57.567Z,89.75
2018-04-24T03:25:50.962Z,89.17
2018-04-24T03:26:50.923Z,89.94
2018-04-24T03:28:43.829Z,89.94
2018-04-24T03:29:43.786Z,90.22
2018-04-24T03:31:36.669Z,89.55
2018-04-24T03:32:36.647Z,89.17
2018-04-24T03:34:29.544Z,89.55
2018-04-24T03:35:29.509Z,89.36
2018-04-24T03:37:22.896Z,89.65
2018-04-24T03:38:22.867Z,88.98
2018-04-24T03:40:15.785Z,89.07
2018-04-24T03:41:15.757Z,88.89
2018-04-24T03:43:09.219Z,88.98
2018-04-24T03:44:08.620Z,89.75
2018-04-24T03:46:01.512Z,88.89
2018-04-24T03:47:01.483Z,89.36
2018-04-24T03:48:54.380Z,88.98
2018-04-24T03:49:54.349Z,89.55
2018-04-24T03:51:47.242Z,89.26
2018-04-24T03:52:47.211Z,89.26
2018-04-24T03:54:40.105Z,89.65
2018-04-24T03:55:40.075Z,90.03
2018-04-24T03:57:32.975Z,90.03
2018-04-24T03:58:32.936Z,90.31
2018-04-24T04:00:25.905Z,90.03
2018-04-24T04:01:25.804Z,90.89
2018-04-24T04:03:18.742Z,90.41
2018-04-24T04:04:18.709Z,89.84
2018-04-24T04:06:11.606Z,90.98
2018-04-24T04:07:11.577Z,90.41
2018-04-24T04:09:04.966Z,90.70
2018-04-24T04:10:04.938Z,90.89
2018-04-24T04:11:57.832Z,90.70
2018-04-24T04:12:57.801Z,91.36
2018-04-24T04:14:50.772Z,90.03
2018-04-24T04:17:03.561Z,91.36
2018-04-24T04:18:03.539Z,91.65
2018-04-24T04:19:56.428Z,91.84
2018-04-24T04:20:56.405Z,92.69
2018-04-24T04:22:49.786Z,91.55
2018-04-24T04:23:49.758Z,92.41
2018-04-24T04:25:42.649Z,91.17
2018-04-24T04:26:42.629Z,90.41
2018-04-24T04:28:35.517Z,89.94
2018-04-24T04:29:35.484Z,90.12
2018-04-24T04:31:28.373Z,89.65
2018-04-24T04:32:28.356Z,89.46
2018-04-24T04:34:21.245Z,89.26
2018-04-24T04:35:21.220Z,90.12
2018-04-24T04:37:14.110Z,89.69
2018-04-24T04:38:14.079Z,89.36
2018-04-24T04:40:06.965Z,89.50
2018-04-24T04:41:06.944Z,89.60
2018-04-24T04:43:00.044Z,89.98
2018-04-24T04:44:00.373Z,89.50
2018-04-24T04:45:52.785Z,89.98
2018-04-24T04:46:52.737Z,89.50
2018-04-24T04:48:45.694Z,89.40
2018-04-24T04:49:45.596Z,89.22
2018-04-24T04:51:38.501Z,88.17
2018-04-24T04:52:38.463Z,88.26
2018-04-24T04:54:31.382Z,87.88
2018-04-24T04:55:31.327Z,88.84
2018-04-24T04:57:24.225Z,87.40
2018-04-24T04:58:24.194Z,88.26
2018-04-24T05:00:17.158Z,87.64
2018-04-24T05:01:17.121Z,86.40
2018-04-24T05:03:10.109Z,87.54
2018-04-24T05:04:10.071Z,87.83
2018-04-24T05:06:03.022Z,85.64
2018-04-24T05:07:02.987Z,86.11
2018-04-24T05:08:56.062Z,86.44
2018-04-24T05:09:56.038Z,86.35
2018-04-24T05:11:49.003Z,83.39
2018-04-24T05:12:48.973Z,83.39
2018-04-24T05:14:42.032Z,82.91
2018-04-24T05:15:42.007Z,83.48
2018-04-24T05:17:35.093Z,81.77
2018-04-24T05:18:35.070Z,81.77
2018-04-24T05:20:28.079Z,82.06
2018-04-24T05:21:28.032Z,82.86
2018-04-24T05:23:21.056Z,82.86
2018-04-24T05:24:21.002Z,81.24
2018-04-24T05:26:13.900Z,80.66
2018-04-24T05:27:13.864Z,80.76
2018-04-24T05:29:07.344Z,80.19
2018-04-24T05:30:07.299Z,80.38
2018-04-24T05:32:00.240Z,79.61
2018-04-24T05:33:00.215Z,79.14
2018-04-24T05:34:53.114Z,80.09
2018-04-24T05:35:53.083Z,79.23
2018-04-24T05:37:45.973Z,78.94
2018-04-24T05:38:45.948Z,79.08
2018-04-24T05:40:39.342Z,79.08
2018-04-24T05:41:39.320Z,78.51
2018-04-24T05:43:32.208Z,77.65
2018-04-24T05:44:32.193Z,77.74
2018-04-24T05:46:25.085Z,77.45
2018-04-24T05:47:25.052Z,76.98
2018-04-24T05:49:17.941Z,76.35
2018-04-24T05:50:17.925Z,75.74
2018-04-24T05:52:11.313Z,75.78
2018-04-24T05:53:11.283Z,75.68
2018-04-24T05:55:04.174Z,75.68
2018-04-24T05:56:04.164Z,75.78
2018-04-24T05:57:57.111Z,75.49
2018-04-24T05:58:57.020Z,75.59
2018-04-24T06:00:49.983Z,75.39
2018-04-24T06:01:49.889Z,75.96
2018-04-24T06:03:42.795Z,75.30
2018-04-24T06:04:42.758Z,74.85
2018-04-24T06:06:35.657Z,73.43
2018-04-24T06:07:35.627Z,72.94
2018-04-24T06:09:28.525Z,72.66
2018-04-24T06:10:28.504Z,71.99
2018-04-24T06:12:21.877Z,71.70
2018-04-24T06:13:21.866Z,71.73
2018-04-24T06:15:14.757Z,71.07
2018-04-24T06:16:14.736Z,71.45
2018-04-24T06:18:08.120Z,71.26
2018-04-24T06:19:08.099Z,71.16
2018-04-24T06:21:01.000Z,71.64
2018-04-24T06:22:00.965Z,71.55
2018-04-24T06:23:53.874Z,71.64
2018-04-24T06:24:53.857Z,71.36
2018-04-24T06:26:46.747Z,71.45
2018-04-24T06:27:46.729Z,71.73
2018-04-24T06:29:39.613Z,71.26
2018-04-24T06:30:39.597Z,71.07
2018-04-24T06:32:32.500Z,70.15
2018-04-24T06:33:32.464Z,70.53
2018-04-24T06:35:25.351Z,69.57
2018-04-24T06:36:25.334Z,68.80
2018-04-24T06:38:18.260Z,69.09
2018-04-24T06:39:18.207Z,69.13
2018-04-24T06:41:11.124Z,67.88
2018-04-24T06:42:11.090Z,68.27
2018-04-24T06:44:03.985Z,67.02
2018-04-24T06:45:03.957Z,66.83
2018-04-24T06:46:56.946Z,66.77
2018-04-24T06:47:56.829Z,66.67
2018-04-24T06:49:49.725Z,66.96
2018-04-24T06:50:49.700Z,67.15
2018-04-24T06:52:42.601Z,64.85
2018-04-24T06:53:42.574Z,64.95
2018-04-24T06:55:35.476Z,64.85
2018-04-24T06:56:35.454Z,64.37
2018-04-24T06:58:28.853Z,64.28
2018-04-24T06:59:28.822Z,65.14
2018-04-24T07:01:22.238Z,66.48
2018-04-24T07:02:22.193Z,65.36
2018-04-24T07:04:15.114Z,64.69
2018-04-24T07:05:15.067Z,64.37
2018-04-24T07:07:08.489Z,62.96
2018-04-24T07:08:08.442Z,63.45
2018-04-24T07:10:01.837Z,63.26
2018-04-24T07:11:01.808Z,62.20
2018-04-24T07:12:54.708Z,61.94
2018-04-24T07:13:54.689Z,61.46
2018-04-24T07:15:47.584Z,61.27
2018-04-24T07:16:47.604Z,61.18
2018-04-24T07:18:40.465Z,61.56
2018-04-24T07:19:40.437Z,61.08
2018-04-24T07:21:33.347Z,60.89
2018-04-24T07:22:33.314Z,60.70
2018-04-24T07:24:26.245Z,60.31
2018-04-24T07:25:26.201Z,60.03
2018-04-24T07:27:19.117Z,60.92
2018-04-24T07:28:19.120Z,60.82
2018-04-24T07:30:11.987Z,60.25
2018-04-24T07:31:11.960Z,60.18
2018-04-24T07:33:04.897Z,58.17
2018-04-24T07:34:04.854Z,58.45
2018-04-24T07:35:57.743Z,58.39
2018-04-24T07:36:57.749Z,58.58
2018-04-24T07:38:51.139Z,57.23
2018-04-24T07:39:51.099Z,57.21
2018-04-24T07:41:44.002Z,57.68
2018-04-24T07:42:43.993Z,57.30
2018-04-24T07:44:36.886Z,57.11
2018-04-24T07:45:36.870Z,57.04
2018-04-24T07:47:29.787Z,57.01
2018-04-24T07:48:29.746Z,57.59
2018-04-24T07:50:23.134Z,56.73
2018-04-24T07:51:23.117Z,57.01
2018-04-24T07:53:16.585Z,57.40
2018-04-24T07:54:16.000Z,56.53
2018-04-24T07:56:08.920Z,55.79
2018-04-24T07:57:08.881Z,55.60
2018-04-24T07:59:02.278Z,56.76
2018-04-24T08:00:02.273Z,56.37
2018-04-24T08:01:55.652Z,55.89
2018-04-24T08:02:55.626Z,55.63
2018-04-24T08:04:48.529Z,55.24
2018-04-24T08:05:48.510Z,55.63
2018-04-24T08:07:41.417Z,54.50
2018-04-24T08:08:41.396Z,53.92
2018-04-24T08:10:34.305Z,53.16
2018-04-24T08:11:34.275Z,53.74
2018-04-24T08:13:27.672Z,54.69
2018-04-24T08:14:27.656Z,54.50
2018-04-24T08:16:20.565Z,53.54
2018-04-24T08:17:20.534Z,53.64
2018-04-24T08:19:13.477Z,53.35
2018-04-24T08:20:13.413Z,52.51
2018-04-24T08:22:06.342Z,52.99
2018-04-24T08:23:06.297Z,52.61
2018-04-24T08:24:59.696Z,52.89
2018-04-24T08:25:59.679Z,52.51
2018-04-24T08:27:52.585Z,51.96
2018-04-24T08:28:52.561Z,52.42
2018-04-24T08:30:45.474Z,50.51
2018-04-24T08:31:45.450Z,50.59
2018-04-24T08:33:38.928Z,50.97
2018-04-24T08:34:38.822Z,51.26
2018-04-24T08:36:31.774Z,50.99
2018-04-24T08:37:31.702Z,50.42
2018-04-24T08:39:24.623Z,50.51
2018-04-24T08:40:24.592Z,50.81
2018-04-24T08:42:18.012Z,50.61
2018-04-24T08:43:17.971Z,50.61
2018-04-24T08:45:10.896Z,51.60
2018-04-24T08:46:10.864Z,51.57
2018-04-24T08:48:03.814Z,52.47
2018-04-24T08:49:03.749Z,51.57
2018-04-24T08:50:56.653Z,50.90
2018-04-24T08:51:56.628Z,50.51
2018-04-24T08:53:49.534Z,49.74
2018-04-24T08:54:49.513Z,48.88
2018-04-24T08:56:42.421Z,49.65
2018-04-24T08:57:42.403Z,50.51
2018-04-24T08:59:35.308Z,52.44
2018-04-24T09:00:35.293Z,52.63
2018-04-24T09:02:28.724Z,51.38
2018-04-24T09:03:28.672Z,51.26
2018-04-24T09:05:22.059Z,51.45
2018-04-24T09:06:22.048Z,51.07
2018-04-24T09:08:15.453Z,52.03
2018-04-24T09:09:15.421Z,52.22
2018-04-24T09:11:08.331Z,52.61
2018-04-24T09:12:08.305Z,52.58
2018-04-24T09:14:01.221Z,52.97
2018-04-24T09:15:01.192Z,51.91
2018-04-24T09:16:54.649Z,52.42
2018-04-24T09:17:54.594Z,52.89
2018-04-24T09:19:47.519Z,53.35
2018-04-24T09:20:47.479Z,53.45
2018-04-24T09:22:40.375Z,53.83
2018-04-24T09:23:40.352Z,53.54
2018-04-24T09:25:33.262Z,53.45
2018-04-24T09:26:33.238Z,53.83
2018-04-24T09:28:26.192Z,52.77
2018-04-24T09:29:26.121Z,53.45
2018-04-24T09:31:19.036Z,52.94
2018-04-24T09:32:18.999Z,53.45
2018-04-24T09:34:12.417Z,53.25
2018-04-24T09:35:12.371Z,54.50
2018-04-24T09:37:05.766Z,54.12
2018-04-24T09:38:05.750Z,54.31
2018-04-24T09:39:58.662Z,54.60
2018-04-24T09:40:58.627Z,54.69
2018-04-24T09:42:52.029Z,54.69
2018-04-24T09:43:52.078Z,55.27
2018-04-24T09:45:44.902Z,55.66
2018-04-24T09:46:44.882Z,55.94
2018-04-24T09:48:37.783Z,55.46
2018-04-24T09:49:37.767Z,55.18
2018-04-24T09:51:30.729Z,54.79
2018-04-24T09:52:30.640Z,55.56
2018-04-24T09:54:24.048Z,56.55
2018-04-24T09:55:24.012Z,55.76
2018-04-24T09:57:17.447Z,55.94
2018-04-24T09:58:17.386Z,55.37
2018-04-24T10:00:10.308Z,55.56
2018-04-24T10:01:10.270Z,55.59
2018-04-24T10:03:03.674Z,55.76
2018-04-24T10:04:03.645Z,55.59
2018-04-24T10:05:56.548Z,54.72
2018-04-24T10:06:56.528Z,55.68
2018-04-24T10:08:49.437Z,55.40
2018-04-24T10:09:49.409Z,54.82
2018-04-24T10:11:42.847Z,55.40
2018-04-24T10:12:42.798Z,54.72
2018-04-24T10:14:35.708Z,55.78
2018-04-24T10:15:35.675Z,55.30
2018-04-24T10:17:28.577Z,55.59
2018-04-24T10:18:28.557Z,54.82
2018-04-24T10:20:21.460Z,54.72
2018-04-24T10:21:21.437Z,54.82
2018-04-24T10:23:14.355Z,55.88
2018-04-24T10:24:14.318Z,55.98
2018-04-24T10:26:07.235Z,55.88
2018-04-24T10:27:07.197Z,54.82
2018-04-24T10:29:00.619Z,54.27
2018-04-24T10:30:00.576Z,54.46
2018-04-24T10:31:53.490Z,54.10
2018-04-24T10:32:53.454Z,53.05
2018-04-24T10:34:46.356Z,52.56
2018-04-24T10:35:46.339Z,53.33
2018-04-24T10:37:39.242Z,53.05
2018-04-24T10:38:39.216Z,53.17
2018-04-24T10:40:32.120Z,52.01
2018-04-24T10:41:32.106Z,52.78
2018-04-24T10:43:25.034Z,52.11
2018-04-24T10:44:24.996Z,52.13
2018-04-24T10:46:17.904Z,51.65
2018-04-24T10:47:17.873Z,51.62
2018-04-24T10:49:11.295Z,50.85
2018-04-24T10:50:11.262Z,50.95
2018-04-24T10:52:04.726Z,51.05
2018-04-24T10:53:04.137Z,50.95
2018-04-24T10:54:57.609Z,50.76
2018-04-24T10:55:57.583Z,50.85
2018-04-24T10:57:50.467Z,51.72
2018-04-24T10:58:50.416Z,51.72
2018-04-24T11:00:43.370Z,51.82
2018-04-24T11:01:43.304Z,52.69
2018-04-24T11:03:36.253Z,53.48
2018-04-24T11:04:36.188Z,54.03
2018-04-24T11:06:29.104Z,53.36
2018-04-24T11:07:29.067Z,52.97
2018-04-24T11:09:22.028Z,51.24
2018-04-24T11:10:21.960Z,51.46
2018-04-24T11:12:14.863Z,52.42
2018-04-24T11:13:14.840Z,52.52
2018-04-24T11:15:07.764Z,54.25
2018-04-24T11:16:07.728Z,54.06
2018-04-24T11:18:00.692Z,54.06
2018-04-24T11:19:00.612Z,53.77
2018-04-24T11:20:54.015Z,53.19
2018-04-24T11:21:53.993Z,53.29
2018-04-24T11:23:46.896Z,53.48
2018-04-24T11:24:46.872Z,53.77
2018-04-24T11:26:39.836Z,53.96
2018-04-24T11:27:39.757Z,52.61
2018-04-24T11:29:32.707Z,52.52
2018-04-24T11:30:32.650Z,52.06
2018-04-24T11:32:25.601Z,52.16
2018-04-24T11:33:25.541Z,52.35
2018-04-24T11:35:18.937Z,50.90
2018-04-24T11:36:18.912Z,51.41
2018-04-24T11:38:11.884Z,52.47
2018-04-24T11:39:11.799Z,52.09
2018-04-24T11:41:04.750Z,51.61
2018-04-24T11:42:04.684Z,50.93
2018-04-24T11:43:57.730Z,51.32
2018-04-24T11:44:57.672Z,51.51
2018-04-24T11:46:51.120Z,51.32
2018-04-24T11:47:51.051Z,51.61
2018-04-24T11:49:43.964Z,52.37
2018-04-24T11:50:43.943Z,52.57
2018-04-24T11:52:37.340Z,52.76
2018-04-24T11:53:37.324Z,51.61
2018-04-24T11:55:30.229Z,51.05
2018-04-24T11:56:30.211Z,51.53
2018-04-24T11:58:23.115Z,52.50
2018-04-24T11:59:23.097Z,52.40
2018-04-24T12:01:16.543Z,52.11
2018-04-24T12:02:16.470Z,53.08
2018-04-24T12:04:09.397Z,53.08
2018-04-24T12:05:09.366Z,51.63
2018-04-24T12:07:02.269Z,52.40
2018-04-24T12:08:02.253Z,51.73
2018-04-24T12:09:55.161Z,51.53
2018-04-24T12:10:55.140Z,51.25
2018-04-24T12:12:48.124Z,52.21
2018-04-24T12:13:48.031Z,52.01
2018-04-24T12:15:40.994Z,51.05
2018-04-24T12:16:40.923Z,51.73
2018-04-24T12:18:33.826Z,52.50
2018-04-24T12:19:33.821Z,52.31
2018-04-24T12:21:26.728Z,52.69
2018-04-24T12:22:26.697Z,53.27
2018-04-24T12:24:19.631Z,54.24
2018-04-24T12:25:19.580Z,53.95
2018-04-24T12:27:12.486Z,51.63
2018-04-24T12:28:12.474Z,51.27
2018-04-24T12:30:05.914Z,52.62
2018-04-24T12:31:05.868Z,52.59
2018-04-24T12:32:58.794Z,52.62
2018-04-24T12:33:58.755Z,52.43
2018-04-24T12:35:52.730Z,52.21
2018-04-24T12:36:52.133Z,52.23
2018-04-24T12:38:45.143Z,52.40
2018-04-24T12:39:45.026Z,52.72
2018-04-24T12:41:37.929Z,52.62
2018-04-24T12:42:37.919Z,53.20
2018-04-24T12:44:30.874Z,52.01
2018-04-24T12:45:30.806Z,52.50
2018-04-24T12:47:24.268Z,52.79
2018-04-24T12:48:24.189Z,52.98
2018-04-24T12:50:17.595Z,52.50
2018-04-24T12:51:17.565Z,52.59
2018-04-24T12:53:10.476Z,52.50
2018-04-24T12:54:10.452Z,52.59
2018-04-24T12:56:03.415Z,51.73
2018-04-24T12:57:03.336Z,51.53
2018-04-24T12:58:56.246Z,52.01
2018-04-24T12:59:56.228Z,52.31
2018-04-24T13:01:49.148Z,52.50
2018-04-24T13:02:49.128Z,51.44
2018-04-24T13:04:42.644Z,51.92
2018-04-24T13:05:42.013Z,52.31
2018-04-24T13:07:34.917Z,52.59
2018-04-24T13:08:34.898Z,52.59
2018-04-24T13:10:27.886Z,53.75
2018-04-24T13:11:27.785Z,53.95
2018-04-24T13:13:20.688Z,52.31
2018-04-24T13:14:20.672Z,52.57
2018-04-24T13:16:13.577Z,53.15
2018-04-24T13:17:13.564Z,53.34
2018-04-24T13:19:07.030Z,54.47
2018-04-24T13:20:06.949Z,54.38
2018-04-24T13:21:59.931Z,54.47
2018-04-24T13:22:59.909Z,54.66
2018-04-24T13:24:52.772Z,54.60
2018-04-24T13:25:52.788Z,54.60
2018-04-24T13:27:46.129Z,54.88
2018-04-24T13:28:46.110Z,54.40
2018-04-24T13:30:39.027Z,54.60
2018-04-24T13:31:39.005Z,55.08
2018-04-24T13:33:31.958Z,54.88
2018-04-24T13:34:31.888Z,54.79
2018-04-24T13:36:24.785Z,54.72
2018-04-24T13:37:24.768Z,55.01
2018-04-24T13:39:18.167Z,54.05
2018-04-24T13:40:18.149Z,54.43
2018-04-24T13:42:11.138Z,53.56
2018-04-24T13:43:11.049Z,54.14
2018-04-24T13:45:03.938Z,54.31
2018-04-24T13:46:03.919Z,54.79
2018-04-24T13:47:56.820Z,54.88
2018-04-24T13:48:56.836Z,55.18
2018-04-24T13:50:50.205Z,55.46
2018-04-24T13:51:50.186Z,56.14
2018-04-24T13:53:43.105Z,56.43
2018-04-24T13:54:43.064Z,56.33
2018-04-24T13:56:36.497Z,56.04
2018-04-24T13:57:36.444Z,55.76
2018-04-24T13:59:29.347Z,56.91
2018-04-24T14:00:29.328Z,57.01
2018-04-24T14:02:22.740Z,56.72
2018-04-24T14:03:22.705Z,56.72
2018-04-24T14:05:16.134Z,56.91
2018-04-24T14:06:16.091Z,57.10
2018-04-24T14:08:09.032Z,57.56
2018-04-24T14:09:08.973Z,57.85
2018-04-24T14:11:01.935Z,58.30
2018-04-24T14:12:01.850Z,58.88
2018-04-24T14:13:54.799Z,58.62
2018-04-24T14:14:54.741Z,59.45
2018-04-24T14:16:47.680Z,59.27
2018-04-24T14:17:47.633Z,58.97
2018-04-24T14:19:40.531Z,59.45
2018-04-24T14:20:40.514Z,59.10
2018-04-24T14:22:33.484Z,59.45
2018-04-24T14:23:33.396Z,59.65
2018-04-24T14:25:26.353Z,59.97
2018-04-24T14:26:26.283Z,59.75
2018-04-24T14:28:19.208Z,59.58
2018-04-24T14:29:19.192Z,59.94
2018-04-24T14:31:12.083Z,59.84
2018-04-24T14:32:12.060Z,61.13
2018-04-24T14:34:04.964Z,60.52
2018-04-24T14:35:04.953Z,60.45
2018-04-24T14:36:57.903Z,60.13
2018-04-24T14:37:57.827Z,59.97
2018-04-24T14:39:51.805Z,60.13
2018-04-24T14:40:51.207Z,60.16
2018-04-24T14:42:44.147Z,60.45
2018-04-24T14:43:44.108Z,61.32
2018-04-24T14:45:37.528Z,60.42
2018-04-24T14:46:37.469Z,60.42
2018-04-24T14:48:30.865Z,60.61
2018-04-24T14:49:30.844Z,60.71
2018-04-24T14:51:23.779Z,61.19
2018-04-24T14:52:23.727Z,61.00
2018-04-24T14:54:17.203Z,61.19
2018-04-24T14:55:17.163Z,60.52
2018-04-24T14:57:10.558Z,61.19
2018-04-24T14:58:10.537Z,61.45
2018-04-24T15:00:03.443Z,62.32
2018-04-24T15:01:03.418Z,62.60
2018-04-24T15:02:56.815Z,62.80
2018-04-24T15:03:56.797Z,63.18
2018-04-24T15:05:49.698Z,63.18
2018-04-24T15:06:49.679Z,63.09
2018-04-24T15:08:43.096Z,62.80
2018-04-24T15:09:43.060Z,62.67
2018-04-24T15:11:35.969Z,63.64
2018-04-24T15:12:35.943Z,64.02
2018-04-24T15:14:28.941Z,64.02
2018-04-24T15:15:28.924Z,63.73
2018-04-24T15:17:22.314Z,64.02
2018-04-24T15:18:22.373Z,63.99
2018-04-24T15:20:15.203Z,64.59
2018-04-24T15:21:15.177Z,65.05
2018-04-24T15:23:08.088Z,64.69
2018-04-24T15:24:08.059Z,64.02
2018-04-24T15:26:01.456Z,64.02
2018-04-24T15:27:01.439Z,63.34
2018-04-24T15:28:54.835Z,63.54
2018-04-24T15:29:54.812Z,63.54
2018-04-24T15:31:47.716Z,63.73
2018-04-24T15:32:47.692Z,64.12
2018-04-24T15:34:40.597Z,64.21
2018-04-24T15:35:40.573Z,64.12
2018-04-24T15:37:33.474Z,64.02
2018-04-24T15:38:33.454Z,63.54
2018-04-24T15:40:26.435Z,63.82
2018-04-24T15:41:26.334Z,63.82
2018-04-24T15:43:19.249Z,64.31
2018-04-24T15:44:19.230Z,64.21
2018-04-24T15:46:12.620Z,63.70
2018-04-24T15:47:12.604Z,63.89
2018-04-24T15:49:05.504Z,64.47
2018-04-24T15:50:05.486Z,64.47
2018-04-24T15:51:58.383Z,65.53
2018-04-24T15:52:58.357Z,65.59
2018-04-24T15:54:51.313Z,66.27
2018-04-24T15:55:51.241Z,66.84
2018-04-24T15:57:44.642Z,66.84
2018-04-24T15:58:44.611Z,66.84
2018-04-24T16:00:38.584Z,66.55
2018-04-24T16:01:37.988Z,66.30
2018-04-24T16:03:30.885Z,66.27
2018-04-24T16:04:30.870Z,66.55
2018-04-24T16:06:24.257Z,67.22
2018-04-24T16:07:24.239Z,66.65
2018-04-24T16:09:17.137Z,67.42
2018-04-24T16:10:17.112Z,67.22
2018-04-24T16:12:10.042Z,67.19
2018-04-24T16:13:09.998Z,67.19
2018-04-24T16:15:02.889Z,66.81
2018-04-24T16:16:02.879Z,67.10
2018-04-24T16:17:55.778Z,66.71
2018-04-24T16:18:55.759Z,66.61
2018-04-24T16:20:48.667Z,67.19
2018-04-24T16:21:48.647Z,66.94
2018-04-24T16:23:41.545Z,66.81
2018-04-24T16:24:41.523Z,67.29
2018-04-24T16:26:34.422Z,67.00
2018-04-24T16:27:34.393Z,67.19
2018-04-24T16:29:27.297Z,67.38
2018-04-24T16:30:27.270Z,67.58
2018-04-24T16:32:20.175Z,67.10
2018-04-24T16:33:20.153Z,67.86
2018-04-24T16:35:13.546Z,67.42
2018-04-24T16:36:13.522Z,67.22
2018-04-24T16:38:06.426Z,66.84
2018-04-24T16:39:06.395Z,67.77
2018-04-24T16:40:59.317Z,67.71
2018-04-24T16:41:59.276Z,66.94
2018-04-24T16:43:52.677Z,66.55
2018-04-24T16:44:52.658Z,66.55
2018-04-24T16:46:45.557Z,66.84
2018-04-24T16:47:45.534Z,66.55
2018-04-24T16:49:38.437Z,66.84
2018-04-24T16:50:38.413Z,66.84
2018-04-24T16:52:31.323Z,66.17
2018-04-24T16:53:31.299Z,65.97
2018-04-24T16:55:24.198Z,65.50
2018-04-24T16:56:24.174Z,65.50
2018-04-24T16:58:17.569Z,66.84
2018-04-24T16:59:17.550Z,66.52
2018-04-24T17:01:10.448Z,66.71
2018-04-24T17:02:10.423Z,66.52
2018-04-24T17:04:03.404Z,67.48
2018-04-24T17:05:03.303Z,67.10
2018-04-24T17:06:56.697Z,67.29
2018-04-24T17:07:56.673Z,66.91
2018-04-24T17:09:49.576Z,66.81
2018-04-24T17:10:49.552Z,67.00
2018-04-24T17:12:42.452Z,67.00
2018-04-24T17:13:42.424Z,67.77
2018-04-24T17:15:35.820Z,68.06
2018-04-24T17:16:35.798Z,67.38
2018-04-24T17:18:28.699Z,67.68
2018-04-24T17:19:28.677Z,67.86
2018-04-24T17:21:21.575Z,68.35
2018-04-24T17:22:21.555Z,67.77
2018-04-24T17:24:14.470Z,67.77
2018-04-24T17:25:14.450Z,67.96
2018-04-24T17:27:07.373Z,67.96
2018-04-24T17:28:07.322Z,67.48
2018-04-24T17:30:00.224Z,67.86
2018-04-24T17:31:00.201Z,67.68
2018-04-24T17:32:53.100Z,67.96
2018-04-24T17:33:53.077Z,68.54
2018-04-24T17:35:45.984Z,67.96
2018-04-24T17:36:45.959Z,67.58
2018-04-24T17:38:39.346Z,68.06
2018-04-24T17:39:39.330Z,68.73
2018-04-24T17:41:32.228Z,69.66
2018-04-24T17:42:32.207Z,69.50
2018-04-24T17:44:25.107Z,68.98
2018-04-24T17:45:25.081Z,69.18
2018-04-24T17:47:17.989Z,69.18
2018-04-24T17:48:17.963Z,69.08
2018-04-24T17:50:11.354Z,68.60
2018-04-24T17:51:11.333Z,68.60
2018-04-24T17:53:04.234Z,68.70
2018-04-24T17:54:04.214Z,68.35
2018-04-24T17:55:57.112Z,68.51
2018-04-24T17:56:57.091Z,68.12
2018-04-24T17:58:50.481Z,68.73
2018-04-24T17:59:50.455Z,68.73
2018-04-24T18:01:43.352Z,69.08
2018-04-24T18:02:43.332Z,68.89
2018-04-24T18:04:36.234Z,68.41
2018-04-24T18:05:36.210Z,69.56
2018-04-24T18:07:29.113Z,69.46
2018-04-24T18:08:29.090Z,69.66
2018-04-24T18:10:21.989Z,69.18
2018-04-24T18:11:22.088Z,69.27
2018-04-24T18:13:14.863Z,69.75
2018-04-24T18:14:14.841Z,68.98
2018-04-24T18:16:07.735Z,69.18
2018-04-24T18:17:07.719Z,68.98
2018-04-24T18:19:00.617Z,69.75
2018-04-24T18:20:00.589Z,69.66
2018-04-24T18:21:53.488Z,71.19
2018-04-24T18:22:53.464Z,70.14
2018-04-24T18:24:46.365Z,70.58
2018-04-24T18:25:46.346Z,70.72
2018-04-24T18:27:39.321Z,71.39
2018-04-24T18:28:39.222Z,71.55
2018-04-24T18:30:32.126Z,71.06
2018-04-24T18:31:32.092Z,71.55
2018-04-24T18:33:24.986Z,70.39
2018-04-24T18:34:24.969Z,70.39